Time;durP1;ratioP1;P1;durP2;ratioP2;P2;SDS_P1;SDS_P2;PMS_P1;PMS_P2;Temp;Humidity;BMP_temperature;BMP_pressure;BME280_temperature;BME280_humidity;BME280_pressure;Samples;Min_cycle;Max_cycle;Signal;HPM_P1;HPM_P2
2023/10/19 00:00:55;;;;;;;11.40;9.40;;;;;;;;;;6217252;23;20365;-95
2023/10/19 00:03:25;;;;;;;12.97;9.40;;;;;;;;;;6215750;23;20466;-95
2023/10/19 00:05:59;;;;;;;15.23;10.00;;;;;;;;;;6240005;23;20390;-96
2023/10/19 00:08:40;;;;;;;11.30;8.80;;;;;;;;;;6240608;23;20381;-96
2023/10/19 00:11:40;;;;;;;12.63;9.47;;;;;;;;;;6218683;23;20405;-93
2023/10/19 00:13:59;;;;;;;7.40;6.70;;;;;;;;;;6238765;23;20358;-95
2023/10/19 00:16:35;;;;;;;8.30;7.40;;;;;;;;;;6217054;23;20390;-96
2023/10/19 00:19:03;;;;;;;9.27;7.37;;;;;;;;;;6213544;23;20397;-95
2023/10/19 00:21:31;;;;;;;10.13;7.40;;;;;;;;;;6218830;23;20381;-96
2023/10/19 00:24:04;;;;;;;7.90;6.50;;;;;;;;;;6174434;22;20429;-96
2023/10/19 00:26:30;;;;;;;7.67;5.17;;;;;;;;;;6264393;22;20398;-94
2023/10/19 00:28:57;;;;;;;8.90;5.23;;;;;;;;;;6213592;23;20510;-96
2023/10/19 00:31:33;;;;;;;4.40;4.00;;;;;;;;;;6238367;23;20387;-96
2023/10/19 00:34:00;;;;;;;8.80;3.63;;;;;;;;;;6213972;23;20402;-96
2023/10/19 00:36:30;;;;;;;4.20;3.13;;;;;;;;;;6213861;23;20379;-93
2023/10/19 00:39:00;;;;;;;8.30;3.70;;;;;;;;;;6215437;23;20374;-93
2023/10/19 00:41:29;;;;;;;4.57;3.87;;;;;;;;;;6212716;23;20386;-96
2023/10/19 00:44:03;;;;;;;3.23;2.90;;;;;;;;;;6214303;23;20436;-96
2023/10/19 00:46:33;;;;;;;4.43;3.50;;;;;;;;;;6213118;22;20449;-96
2023/10/19 00:49:05;;;;;;;3.03;2.73;;;;;;;;;;6208190;23;20453;-95
2023/10/19 00:51:41;;;;;;;4.20;2.90;;;;;;;;;;6182904;23;20978;-96
2023/10/19 00:54:33;;;;;;;3.00;2.70;;;;;;;;;;6211334;23;20383;-96
2023/10/19 00:59:38;;;;;;;3.37;2.73;;;;;;;;;;6294788;22;20471;-93
2023/10/19 01:02:19;;;;;;;3.20;2.90;;;;;;;;;;6243706;22;20439;-96
2023/10/19 01:04:56;;;;;;;4.30;3.00;;;;;;;;;;6268494;22;20390;-95
2023/10/19 01:07:27;;;;;;;1.90;1.80;;;;;;;;;;6266214;22;20385;-96
2023/10/19 01:10:05;;;;;;;4.13;3.40;;;;;;;;;;6244642;22;20388;-95
2023/10/19 01:17:57;;;;;;;3.27;2.93;;;;;;;;;;6267458;22;20349;-96
2023/10/19 01:22:54;;;;;;;3.47;3.17;;;;;;;;;;6272153;22;20423;-95
2023/10/19 01:25:43;;;;;;;4.53;2.70;;;;;;;;;;6247216;22;20385;-94
2023/10/19 01:28:17;;;;;;;3.53;2.70;;;;;;;;;;6273979;22;20389;-94
2023/10/19 01:30:44;;;;;;;3.90;3.60;;;;;;;;;;6269624;22;20881;-96
2023/10/19 01:33:18;;;;;;;4.27;2.57;;;;;;;;;;6247128;22;20390;-93
2023/10/19 01:38:33;;;;;;;4.30;3.10;;;;;;;;;;6274457;22;20369;-96
2023/10/19 01:40:59;;;;;;;3.43;3.20;;;;;;;;;;6246344;22;20377;-94
2023/10/19 01:43:30;;;;;;;4.30;3.77;;;;;;;;;;6246630;22;20440;-94
2023/10/19 01:45:56;;;;;;;4.40;3.60;;;;;;;;;;6244659;22;20413;-95
2023/10/19 01:48:31;;;;;;;3.30;3.00;;;;;;;;;;6245133;22;20398;-96
2023/10/19 01:51:03;;;;;;;6.53;3.97;;;;;;;;;;6248253;22;20387;-93
2023/10/19 01:53:31;;;;;;;4.13;3.30;;;;;;;;;;6249519;22;20381;-96
2023/10/19 01:56:09;;;;;;;6.23;2.93;;;;;;;;;;6210807;23;20387;-96
2023/10/19 01:58:39;;;;;;;6.60;4.67;;;;;;;;;;6163530;23;20413;-93
2023/10/19 02:01:15;;;;;;;4.60;3.20;;;;;;;;;;6209976;23;20387;-96
2023/10/19 02:03:44;;;;;;;5.77;3.97;;;;;;;;;;6211077;23;20426;-94
2023/10/19 02:06:17;;;;;;;3.63;3.33;;;;;;;;;;6210843;23;20409;-94
2023/10/19 02:08:56;;;;;;;4.90;2.90;;;;;;;;;;6210722;23;20387;-96
2023/10/19 02:11:23;;;;;;;7.33;3.10;;;;;;;;;;6209108;23;20384;-96
2023/10/19 02:13:50;;;;;;;5.67;3.70;;;;;;;;;;6210080;23;20383;-93
2023/10/19 02:16:16;;;;;;;7.27;3.27;;;;;;;;;;6209963;23;20462;-95
2023/10/19 02:18:44;;;;;;;6.33;3.47;;;;;;;;;;6210676;23;20438;-94
2023/10/19 02:21:21;;;;;;;4.83;3.27;;;;;;;;;;6210608;23;20708;-96
2023/10/19 02:23:53;;;;;;;2.97;2.70;;;;;;;;;;6237150;23;20434;-95
2023/10/19 02:26:26;;;;;;;4.43;3.53;;;;;;;;;;6176227;23;20430;-95
2023/10/19 02:28:52;;;;;;;5.83;4.07;;;;;;;;;;6098949;23;20393;-94
2023/10/19 02:31:47;;;;;;;4.83;3.20;;;;;;;;;;6122788;23;20386;-94
2023/10/19 02:34:34;;;;;;;4.87;3.20;;;;;;;;;;6142824;23;20390;-94
2023/10/19 02:37:02;;;;;;;6.50;3.20;;;;;;;;;;6118540;23;20418;-94
2023/10/19 02:39:48;;;;;;;3.30;3.00;;;;;;;;;;6133030;23;20376;-96
2023/10/19 02:42:24;;;;;;;5.20;3.10;;;;;;;;;;6123133;23;20413;-95
2023/10/19 02:55:20;;;;;;;7.40;3.30;;;;;;;;;;6280212;22;20428;-95
2023/10/19 02:57:53;;;;;;;4.77;2.67;;;;;;;;;;6249736;22;20392;-93
2023/10/19 03:00:21;;;;;;;3.40;3.10;;;;;;;;;;6297313;22;20372;-96
2023/10/19 03:08:10;;;;;;;4.53;3.17;;;;;;;;;;6288878;22;20467;-96
2023/10/19 03:13:22;;;;;;;3.47;3.17;;;;;;;;;;6272764;22;20436;-95
2023/10/19 03:15:49;;;;;;;4.37;3.20;;;;;;;;;;6220343;22;20392;-94
2023/10/19 03:18:16;;;;;;;4.10;3.23;;;;;;;;;;6244691;22;20385;-95
2023/10/19 03:20:42;;;;;;;5.13;3.60;;;;;;;;;;6245852;22;20443;-96
2023/10/19 03:33:36;;;;;;;3.30;3.00;;;;;;;;;;6265534;22;20424;-95
2023/10/19 03:54:28;;;;;;;6.40;3.37;;;;;;;;;;6210261;23;20407;-96
2023/10/19 04:12:43;;;;;;;3.23;2.90;;;;;;;;;;6274300;22;20381;-93
2023/10/19 04:15:16;;;;;;;3.70;3.03;;;;;;;;;;6232776;23;20391;-94
2023/10/19 04:17:45;;;;;;;3.40;2.90;;;;;;;;;;6206490;22;20476;-93
2023/10/19 04:22:44;;;;;;;5.50;3.30;;;;;;;;;;6265749;22;20426;-93
2023/10/19 04:25:13;;;;;;;5.10;4.23;;;;;;;;;;6266219;22;20414;-96
2023/10/19 04:43:32;;;;;;;3.63;3.13;;;;;;;;;;6271838;22;20487;-95
2023/10/19 04:45:58;;;;;;;4.70;3.70;;;;;;;;;;6269398;22;20387;-94
2023/10/19 04:48:24;;;;;;;4.87;3.37;;;;;;;;;;6180685;23;20375;-95
2023/10/19 04:50:52;;;;;;;3.70;3.27;;;;;;;;;;6208910;23;20371;-96
2023/10/19 04:53:18;;;;;;;3.90;3.37;;;;;;;;;;6210947;23;20422;-95
2023/10/19 04:55:46;;;;;;;4.50;3.33;;;;;;;;;;6211137;23;20482;-94
2023/10/19 04:58:14;;;;;;;3.40;3.10;;;;;;;;;;6212446;23;20395;-95
2023/10/19 05:03:19;;;;;;;4.43;3.90;;;;;;;;;;6288641;22;20468;-94
2023/10/19 05:05:58;;;;;;;3.30;3.00;;;;;;;;;;6266347;22;20433;-96
2023/10/19 05:08:27;;;;;;;5.93;5.20;;;;;;;;;;6266743;22;20382;-95
2023/10/19 05:10:54;;;;;;;7.60;3.53;;;;;;;;;;6215455;23;20398;-96
2023/10/19 05:13:20;;;;;;;5.57;3.30;;;;;;;;;;6240713;23;20374;-96
2023/10/19 05:15:47;;;;;;;7.00;3.50;;;;;;;;;;6233837;23;20394;-96
2023/10/19 05:18:13;;;;;;;3.50;3.20;;;;;;;;;;6240680;22;20386;-95
2023/10/19 05:20:40;;;;;;;4.10;3.20;;;;;;;;;;6235772;22;20377;-93
2023/10/19 05:23:08;;;;;;;3.30;2.87;;;;;;;;;;6241166;22;20406;-93
2023/10/19 05:25:36;;;;;;;5.00;3.97;;;;;;;;;;6235924;22;20983;-96
2023/10/19 05:28:10;;;;;;;4.33;3.77;;;;;;;;;;6239641;23;20405;-93
2023/10/19 05:30:36;;;;;;;3.33;2.50;;;;;;;;;;6240618;22;20386;-92
2023/10/19 05:33:02;;;;;;;4.33;3.60;;;;;;;;;;6241161;22;20390;-96
2023/10/19 05:35:29;;;;;;;3.90;3.50;;;;;;;;;;6239038;23;20408;-96
2023/10/19 05:38:05;;;;;;;4.93;3.73;;;;;;;;;;6240336;23;20402;-94
2023/10/19 05:40:46;;;;;;;3.57;3.27;;;;;;;;;;6269556;22;20477;-94
2023/10/19 05:43:14;;;;;;;3.73;3.40;;;;;;;;;;6240091;22;20429;-95
2023/10/19 05:48:23;;;;;;;4.93;4.43;;;;;;;;;;6276101;22;20439;-95
2023/10/19 05:53:25;;;;;;;3.83;3.10;;;;;;;;;;6262464;22;20422;-95
2023/10/19 05:55:51;;;;;;;3.93;3.63;;;;;;;;;;6235975;23;20397;-95
2023/10/19 05:58:17;;;;;;;5.90;4.33;;;;;;;;;;6210373;23;20366;-95
2023/10/19 06:00:43;;;;;;;7.63;4.40;;;;;;;;;;6236826;23;20441;-94
2023/10/19 06:03:09;;;;;;;6.93;4.47;;;;;;;;;;6208365;23;20422;-95
2023/10/19 06:05:38;;;;;;;4.97;3.73;;;;;;;;;;6207720;23;20386;-96
2023/10/19 06:08:04;;;;;;;6.10;3.63;;;;;;;;;;6206368;23;20382;-94
2023/10/19 06:10:32;;;;;;;4.70;3.73;;;;;;;;;;6208134;23;20382;-92
2023/10/19 06:12:58;;;;;;;4.67;3.20;;;;;;;;;;6207552;23;20429;-92
2023/10/19 06:15:31;;;;;;;7.73;4.17;;;;;;;;;;6212899;23;20406;-92
2023/10/19 06:17:57;;;;;;;4.77;3.87;;;;;;;;;;6261512;23;20381;-93
2023/10/19 06:20:43;;;;;;;3.33;3.03;;;;;;;;;;6211300;23;20421;-94
2023/10/19 06:23:11;;;;;;;5.97;5.20;;;;;;;;;;6258779;23;20426;-92
2023/10/19 06:25:38;;;;;;;3.90;3.50;;;;;;;;;;6213210;23;20398;-94
2023/10/19 06:28:04;;;;;;;6.30;4.47;;;;;;;;;;6209078;23;20950;-93
2023/10/19 06:30:30;;;;;;;4.43;4.03;;;;;;;;;;6209222;23;20386;-95
2023/10/19 06:33:02;;;;;;;7.13;3.70;;;;;;;;;;6209278;23;20377;-96
2023/10/19 06:35:29;;;;;;;6.60;4.27;;;;;;;;;;6208910;23;20377;-95
2023/10/19 06:37:55;;;;;;;6.53;4.40;;;;;;;;;;6211431;23;20369;-96
2023/10/19 06:40:25;;;;;;;4.87;3.70;;;;;;;;;;6212744;23;20394;-94
2023/10/19 06:42:51;;;;;;;9.13;4.83;;;;;;;;;;6209637;22;20529;-95
2023/10/19 06:45:18;;;;;;;4.30;3.77;;;;;;;;;;6208882;23;20733;-94
2023/10/19 06:47:45;;;;;;;4.70;4.13;;;;;;;;;;6208779;23;20374;-94
2023/10/19 06:50:18;;;;;;;5.10;4.20;;;;;;;;;;6211951;22;20389;-96
2023/10/19 06:55:22;;;;;;;4.73;3.87;;;;;;;;;;6272136;22;20482;-96
2023/10/19 06:57:53;;;;;;;4.90;4.13;;;;;;;;;;6242223;22;20698;-94
2023/10/19 07:00:22;;;;;;;4.53;4.10;;;;;;;;;;6239655;22;20484;-96
2023/10/19 07:02:51;;;;;;;5.90;4.00;;;;;;;;;;6245941;22;20428;-95
2023/10/19 07:05:21;;;;;;;4.53;3.90;;;;;;;;;;6269646;22;20408;-95
2023/10/19 07:07:48;;;;;;;4.83;3.67;;;;;;;;;;6247023;22;20416;-95
2023/10/19 07:10:17;;;;;;;4.30;3.90;;;;;;;;;;6271675;22;20887;-93
2023/10/19 07:12:44;;;;;;;9.10;3.73;;;;;;;;;;6249443;22;20454;-96
2023/10/19 07:15:14;;;;;;;4.47;3.77;;;;;;;;;;6244937;22;20393;-92
2023/10/19 07:20:32;;;;;;;4.83;4.33;;;;;;;;;;6273087;22;20393;-96
2023/10/19 07:30:51;;;;;;;5.03;4.40;;;;;;;;;;6287429;22;20465;-92
2023/10/19 07:46:16;;;;;;;5.57;3.17;;;;;;;;;;6267660;22;20919;-95
2023/10/19 07:48:43;;;;;;;4.23;3.83;;;;;;;;;;6216154;23;20757;-96
2023/10/19 07:51:11;;;;;;;5.07;4.33;;;;;;;;;;6184554;23;20726;-90
2023/10/19 07:53:37;;;;;;;5.23;4.40;;;;;;;;;;6210619;23;20409;-92
2023/10/19 07:56:03;;;;;;;5.23;3.93;;;;;;;;;;6210112;23;20378;-95
2023/10/19 07:58:30;;;;;;;4.97;3.50;;;;;;;;;;6212292;23;20430;-94
2023/10/19 08:00:56;;;;;;;5.73;3.83;;;;;;;;;;6208664;23;21025;-96
2023/10/19 08:03:22;;;;;;;3.67;2.90;;;;;;;;;;6214102;22;20449;-94
2023/10/19 08:05:48;;;;;;;5.70;3.33;;;;;;;;;;6213906;23;20389;-93
2023/10/19 08:08:14;;;;;;;6.83;3.60;;;;;;;;;;6214804;22;20437;-93
2023/10/19 08:10:40;;;;;;;7.40;3.70;;;;;;;;;;6212283;23;20378;-91
2023/10/19 08:13:07;;;;;;;4.20;3.50;;;;;;;;;;6239697;22;20373;-91
2023/10/19 08:15:33;;;;;;;4.90;4.40;;;;;;;;;;6259830;23;20401;-93
2023/10/19 08:18:00;;;;;;;5.57;4.70;;;;;;;;;;6187150;23;20385;-91
2023/10/19 08:20:30;;;;;;;4.33;3.93;;;;;;;;;;6211276;23;20420;-95
2023/10/19 08:22:59;;;;;;;4.90;4.40;;;;;;;;;;6214504;23;20436;-95
2023/10/19 08:25:28;;;;;;;6.27;4.40;;;;;;;;;;6213679;23;20386;-94
2023/10/19 08:27:57;;;;;;;5.23;4.40;;;;;;;;;;6212387;23;20393;-95
2023/10/19 08:30:23;;;;;;;5.53;4.93;;;;;;;;;;6213098;23;20416;-92
2023/10/19 08:32:52;;;;;;;5.37;4.50;;;;;;;;;;6215756;22;20401;-93
2023/10/19 08:35:20;;;;;;;5.60;4.63;;;;;;;;;;6214366;23;20392;-96
2023/10/19 08:37:57;;;;;;;6.00;4.57;;;;;;;;;;6216313;23;20382;-96
2023/10/19 08:40:32;;;;;;;6.40;4.60;;;;;;;;;;6243294;23;20355;-92
2023/10/19 08:43:13;;;;;;;4.17;3.87;;;;;;;;;;6267145;22;20913;-96
2023/10/19 08:45:39;;;;;;;3.93;3.20;;;;;;;;;;6216747;23;20451;-92
2023/10/19 08:48:05;;;;;;;3.20;2.70;;;;;;;;;;6214968;23;20389;-95
2023/10/19 08:50:33;;;;;;;2.50;2.10;;;;;;;;;;6214303;23;20405;-93
2023/10/19 08:53:00;;;;;;;2.70;2.50;;;;;;;;;;6215250;23;20398;-95
2023/10/19 08:55:27;;;;;;;3.93;2.10;;;;;;;;;;6215883;23;20394;-92
2023/10/19 09:00:34;;;;;;;3.03;2.83;;;;;;;;;;6294689;22;20440;-92
2023/10/19 09:10:56;;;;;;;2.60;1.93;;;;;;;;;;6270729;22;20398;-96
2023/10/19 09:13:23;;;;;;;1.63;1.53;;;;;;;;;;6271021;22;20386;-96
2023/10/19 09:15:55;;;;;;;2.30;1.77;;;;;;;;;;6218552;23;20409;-94
2023/10/19 09:18:27;;;;;;;2.60;1.63;;;;;;;;;;6219199;23;20383;-96
2023/10/19 09:21:12;;;;;;;4.90;2.13;;;;;;;;;;6247582;23;20392;-96
2023/10/19 09:23:44;;;;;;;1.93;1.73;;;;;;;;;;6266694;22;20433;-95
2023/10/19 09:26:12;;;;;;;3.77;2.37;;;;;;;;;;6213545;23;20404;-96
2023/10/19 09:28:38;;;;;;;2.67;1.83;;;;;;;;;;6216639;23;20394;-95
2023/10/19 09:31:04;;;;;;;3.03;2.40;;;;;;;;;;6212830;23;20401;-95
2023/10/19 09:33:36;;;;;;;6.67;2.00;;;;;;;;;;6212351;23;20386;-94
2023/10/19 09:38:51;;;;;;;2.40;2.20;;;;;;;;;;6294591;22;20445;-93
2023/10/19 09:41:28;;;;;;;2.90;2.07;;;;;;;;;;6249222;22;20400;-96
2023/10/19 09:43:58;;;;;;;2.47;2.10;;;;;;;;;;6246184;22;20537;-95
2023/10/19 09:46:29;;;;;;;2.97;2.17;;;;;;;;;;6269786;22;20399;-95
2023/10/19 09:48:55;;;;;;;4.37;2.50;;;;;;;;;;6243970;22;20385;-93
2023/10/19 09:51:21;;;;;;;2.87;2.57;;;;;;;;;;6243191;22;20377;-96
2023/10/19 09:53:52;;;;;;;2.50;2.20;;;;;;;;;;6245638;22;20389;-95
2023/10/19 09:56:21;;;;;;;4.10;2.13;;;;;;;;;;6271268;22;20366;-93
2023/10/19 09:58:48;;;;;;;4.90;2.67;;;;;;;;;;6244673;22;20403;-93
2023/10/19 10:01:18;;;;;;;3.30;2.10;;;;;;;;;;6246463;22;20377;-95
2023/10/19 10:03:57;;;;;;;3.17;2.33;;;;;;;;;;6245120;22;20459;-95
2023/10/19 10:06:29;;;;;;;5.67;2.10;;;;;;;;;;6271349;22;20393;-93
2023/10/19 10:08:56;;;;;;;2.10;1.90;;;;;;;;;;6266871;22;20365;-96
2023/10/19 10:11:24;;;;;;;3.00;2.27;;;;;;;;;;6247470;22;20400;-96
2023/10/19 10:13:53;;;;;;;2.33;1.93;;;;;;;;;;6239748;22;20384;-93
2023/10/19 10:16:26;;;;;;;2.50;2.10;;;;;;;;;;6241141;22;20416;-94
2023/10/19 10:18:55;;;;;;;4.50;2.43;;;;;;;;;;6238897;22;20386;-94
2023/10/19 10:21:21;;;;;;;2.67;2.30;;;;;;;;;;6231950;23;20369;-94
2023/10/19 10:23:55;;;;;;;5.80;2.30;;;;;;;;;;6232731;23;20426;-94
2023/10/19 10:26:24;;;;;;;2.67;2.33;;;;;;;;;;6234916;23;21108;-94
2023/10/19 10:29:11;;;;;;;4.87;2.33;;;;;;;;;;6232426;23;20410;-96
2023/10/19 10:31:44;;;;;;;2.30;2.10;;;;;;;;;;6234408;23;20382;-95
2023/10/19 10:34:11;;;;;;;5.47;2.30;;;;;;;;;;6236225;23;20393;-95
2023/10/19 10:36:56;;;;;;;2.40;1.90;;;;;;;;;;6233865;23;20381;-95
2023/10/19 10:39:24;;;;;;;3.37;2.83;;;;;;;;;;6259013;22;20406;-96
2023/10/19 10:41:55;;;;;;;3.53;3.27;;;;;;;;;;6235118;23;20361;-96
2023/10/19 10:44:24;;;;;;;2.97;2.23;;;;;;;;;;6235286;22;20416;-94
2023/10/19 10:46:50;;;;;;;6.40;3.57;;;;;;;;;;6236713;23;20363;-94
2023/10/19 10:49:17;;;;;;;2.93;2.63;;;;;;;;;;6233327;23;20386;-94
2023/10/19 10:51:43;;;;;;;2.97;2.70;;;;;;;;;;6236838;22;20385;-95
2023/10/19 10:54:09;;;;;;;3.20;2.83;;;;;;;;;;6238400;22;20389;-94
2023/10/19 10:56:39;;;;;;;2.80;2.60;;;;;;;;;;6240445;22;20435;-93
2023/10/19 10:59:12;;;;;;;6.73;3.90;;;;;;;;;;6261039;22;20907;-95
2023/10/19 11:01:38;;;;;;;3.53;3.23;;;;;;;;;;6235939;22;20393;-94
2023/10/19 11:04:11;;;;;;;5.80;3.87;;;;;;;;;;6237425;22;20428;-95
2023/10/19 11:06:50;;;;;;;2.83;2.60;;;;;;;;;;6235453;22;20940;-94
2023/10/19 11:09:18;;;;;;;4.70;2.30;;;;;;;;;;6233603;22;20394;-95
2023/10/19 11:11:45;;;;;;;2.67;1.47;;;;;;;;;;6239979;22;20385;-95
2023/10/19 11:14:12;;;;;;;4.07;1.90;;;;;;;;;;6241046;22;20505;-96
2023/10/19 11:21:54;;;;;;;2.63;1.60;;;;;;;;;;6261099;22;20488;-95
2023/10/19 11:24:26;;;;;;;2.80;2.17;;;;;;;;;;6206825;23;20881;-94
2023/10/19 11:26:54;;;;;;;2.80;2.60;;;;;;;;;;6211205;23;20389;-95
2023/10/19 11:29:21;;;;;;;3.33;1.87;;;;;;;;;;6206006;23;20397;-95
2023/10/19 11:31:59;;;;;;;2.17;1.90;;;;;;;;;;6208487;23;20500;-96
2023/10/19 11:34:26;;;;;;;2.93;2.47;;;;;;;;;;6207175;23;20390;-95
2023/10/19 11:36:57;;;;;;;3.57;2.00;;;;;;;;;;6212074;23;20382;-93
2023/10/19 11:39:29;;;;;;;5.93;2.27;;;;;;;;;;6173844;23;20402;-94
2023/10/19 11:41:58;;;;;;;2.30;1.97;;;;;;;;;;6204557;23;20392;-95
2023/10/19 12:15:34;;;;;;;3.40;2.53;;;;;;;;;;6259447;22;20468;-92
2023/10/19 12:18:14;;;;;;;2.67;1.93;;;;;;;;;;6246121;22;20369;-95
2023/10/19 12:20:45;;;;;;;4.70;2.50;;;;;;;;;;6274234;22;20385;-94
2023/10/19 12:38:52;;;;;;;5.07;4.67;;;;;;;;;;6295258;22;20443;-96
2023/10/19 12:41:27;;;;;;;3.93;2.67;;;;;;;;;;6271662;22;20374;-95
2023/10/19 12:44:09;;;;;;;4.20;2.50;;;;;;;;;;6208463;23;20451;-95
2023/10/19 12:46:38;;;;;;;3.97;3.10;;;;;;;;;;6182962;23;20483;-92
2023/10/19 12:49:16;;;;;;;5.27;2.63;;;;;;;;;;6143973;23;20388;-92
2023/10/19 12:51:43;;;;;;;2.90;2.37;;;;;;;;;;6148720;23;20391;-94
2023/10/19 12:54:10;;;;;;;3.53;2.77;;;;;;;;;;6110982;23;20458;-93
2023/10/19 12:56:39;;;;;;;2.30;2.10;;;;;;;;;;6086010;23;20401;-96
2023/10/19 12:59:06;;;;;;;4.17;2.30;;;;;;;;;;6056560;23;20383;-92
2023/10/19 13:01:35;;;;;;;3.87;2.93;;;;;;;;;;6057297;23;20832;-93
2023/10/19 13:04:13;;;;;;;3.37;2.50;;;;;;;;;;6058942;23;20414;-92
2023/10/19 13:06:40;;;;;;;3.10;1.93;;;;;;;;;;6063730;23;20420;-92
2023/10/19 13:09:09;;;;;;;3.97;2.57;;;;;;;;;;6130543;23;20401;-94
2023/10/19 13:11:35;;;;;;;3.07;2.50;;;;;;;;;;6145961;23;20380;-93
2023/10/19 13:14:00;;;;;;;8.20;2.70;;;;;;;;;;6139831;23;20460;-93
2023/10/19 13:16:27;;;;;;;3.10;2.80;;;;;;;;;;6142063;23;20391;-93
2023/10/19 13:18:53;;;;;;;2.90;2.47;;;;;;;;;;6077006;23;20392;-94
2023/10/19 13:21:27;;;;;;;4.57;4.17;;;;;;;;;;6037065;23;20401;-96
2023/10/19 13:23:59;;;;;;;6.20;4.87;;;;;;;;;;6038900;23;20423;-93
2023/10/19 13:26:26;;;;;;;5.17;4.20;;;;;;;;;;6099215;23;20378;-93
2023/10/19 13:28:55;;;;;;;5.20;4.70;;;;;;;;;;6152015;23;20388;-94
2023/10/19 13:36:33;;;;;;;8.40;6.70;;;;;;;;;;6269628;22;20417;-94
2023/10/19 13:49:42;;;;;;;7.80;6.67;;;;;;;;;;6010217;22;5728586;-90
2023/10/19 13:52:15;;;;;;;7.20;6.20;;;;;;;;;;6242553;23;20385;-94
2023/10/19 13:54:46;;;;;;;10.80;6.00;;;;;;;;;;6220398;23;20398;-92
2023/10/19 13:57:12;;;;;;;6.87;6.17;;;;;;;;;;6242935;23;20417;-93
2023/10/19 13:59:39;;;;;;;7.93;7.10;;;;;;;;;;6219614;23;20424;-92
2023/10/19 14:02:08;;;;;;;7.70;6.47;;;;;;;;;;6241367;23;20392;-93
2023/10/19 14:04:34;;;;;;;7.83;6.50;;;;;;;;;;6211921;23;20707;-92
2023/10/19 14:07:00;;;;;;;9.93;6.50;;;;;;;;;;6238885;23;20394;-91
2023/10/19 14:09:27;;;;;;;7.40;6.50;;;;;;;;;;6212864;23;20366;-93
2023/10/19 14:11:53;;;;;;;9.33;6.80;;;;;;;;;;6210467;23;20390;-94
2023/10/19 14:14:23;;;;;;;6.50;5.90;;;;;;;;;;6211927;23;20386;-93
2023/10/19 14:16:50;;;;;;;12.13;6.23;;;;;;;;;;6216557;23;20378;-92
2023/10/19 14:19:22;;;;;;;7.97;7.17;;;;;;;;;;6217953;23;20394;-93
2023/10/19 14:21:48;;;;;;;8.13;6.73;;;;;;;;;;6218059;23;20374;-91
2023/10/19 14:24:14;;;;;;;10.20;6.70;;;;;;;;;;6216049;23;20382;-90
2023/10/19 14:26:42;;;;;;;8.93;7.00;;;;;;;;;;6216617;23;20383;-93
2023/10/19 14:29:08;;;;;;;9.13;6.63;;;;;;;;;;6212935;23;20422;-91
2023/10/19 14:31:34;;;;;;;11.23;6.87;;;;;;;;;;6209865;23;20382;-93
2023/10/19 14:34:00;;;;;;;7.90;7.00;;;;;;;;;;6211727;23;20366;-93
2023/10/19 14:36:26;;;;;;;7.83;6.83;;;;;;;;;;6213372;23;20861;-92
2023/10/19 14:38:52;;;;;;;12.90;9.90;;;;;;;;;;6208599;23;20378;-93
2023/10/19 14:41:18;;;;;;;10.30;6.77;;;;;;;;;;6206986;23;20399;-91
2023/10/19 14:43:44;;;;;;;7.97;6.83;;;;;;;;;;6206153;23;20481;-92
2023/10/19 14:46:10;;;;;;;8.00;6.97;;;;;;;;;;6209080;23;20482;-92
2023/10/19 14:48:37;;;;;;;11.67;7.87;;;;;;;;;;6205425;23;20438;-93
2023/10/19 14:51:05;;;;;;;7.90;7.10;;;;;;;;;;6202608;23;20375;-93
2023/10/19 14:53:31;;;;;;;8.03;6.40;;;;;;;;;;6202555;23;21012;-93
2023/10/19 14:55:57;;;;;;;8.80;6.73;;;;;;;;;;6204496;23;20398;-95
2023/10/19 14:58:25;;;;;;;7.20;6.50;;;;;;;;;;6224921;23;20371;-92
2023/10/19 15:00:54;;;;;;;10.70;6.23;;;;;;;;;;6229179;23;20375;-94
2023/10/19 15:03:21;;;;;;;7.93;6.77;;;;;;;;;;6201639;23;20383;-92
2023/10/19 15:05:51;;;;;;;8.00;7.00;;;;;;;;;;6201667;23;20391;-90
2023/10/19 15:08:19;;;;;;;9.23;6.50;;;;;;;;;;6201834;23;20410;-94
2023/10/19 15:10:45;;;;;;;10.67;7.60;;;;;;;;;;6200799;23;20399;-92
2023/10/19 15:13:11;;;;;;;9.00;7.53;;;;;;;;;;6201564;23;20384;-93
2023/10/19 15:15:37;;;;;;;11.20;7.90;;;;;;;;;;6203501;23;20394;-93
2023/10/19 15:18:03;;;;;;;12.20;8.13;;;;;;;;;;6201983;23;20367;-92
2023/10/19 15:20:33;;;;;;;9.77;7.60;;;;;;;;;;6202512;23;20378;-94
2023/10/19 15:23:04;;;;;;;7.63;6.83;;;;;;;;;;6207977;23;20437;-93
2023/10/19 15:25:31;;;;;;;10.93;6.93;;;;;;;;;;6230201;23;20371;-93
2023/10/19 15:27:59;;;;;;;15.27;7.87;;;;;;;;;;6204142;23;20446;-94
2023/10/19 15:30:26;;;;;;;12.07;8.10;;;;;;;;;;6207671;23;20455;-93
2023/10/19 15:32:55;;;;;;;11.37;10.27;;;;;;;;;;6203257;23;20395;-93
2023/10/19 15:35:23;;;;;;;10.90;9.50;;;;;;;;;;6228939;23;20418;-92
2023/10/19 15:37:50;;;;;;;10.57;8.77;;;;;;;;;;6205205;23;20379;-92
2023/10/19 15:40:17;;;;;;;12.40;8.90;;;;;;;;;;6235124;23;20401;-92
2023/10/19 15:42:43;;;;;;;7.80;6.90;;;;;;;;;;6206510;23;20399;-94
2023/10/19 15:45:11;;;;;;;9.47;7.47;;;;;;;;;;6140693;23;20366;-93
2023/10/19 15:47:37;;;;;;;7.70;6.20;;;;;;;;;;6088549;23;20462;-93
2023/10/19 15:50:03;;;;;;;8.67;6.07;;;;;;;;;;6088709;23;20395;-90
2023/10/19 15:52:34;;;;;;;7.80;6.07;;;;;;;;;;6087829;23;20391;-93
2023/10/19 15:55:00;;;;;;;10.37;6.27;;;;;;;;;;6135542;23;20464;-94
2023/10/19 15:57:27;;;;;;;8.47;5.90;;;;;;;;;;6178761;23;20387;-92
2023/10/19 15:59:54;;;;;;;9.93;7.20;;;;;;;;;;6178695;23;20379;-92
2023/10/19 16:02:23;;;;;;;8.30;6.70;;;;;;;;;;6201463;23;20385;-90
2023/10/19 16:04:49;;;;;;;8.80;7.47;;;;;;;;;;6177583;23;20383;-92
2023/10/19 16:07:15;;;;;;;7.23;6.53;;;;;;;;;;6176223;23;20453;-91
2023/10/19 16:09:42;;;;;;;7.10;4.90;;;;;;;;;;6128665;23;20397;-93
2023/10/19 16:12:16;;;;;;;9.50;8.10;;;;;;;;;;6178328;23;20383;-93
2023/10/19 16:14:43;;;;;;;11.97;7.53;;;;;;;;;;6155438;23;20429;-92
2023/10/19 16:17:09;;;;;;;7.83;5.90;;;;;;;;;;6182188;23;20387;-91
2023/10/19 16:19:35;;;;;;;9.50;8.20;;;;;;;;;;6182470;23;20537;-92
2023/10/19 16:22:02;;;;;;;8.50;7.57;;;;;;;;;;6185767;23;20371;-93
2023/10/19 16:24:29;;;;;;;15.13;7.20;;;;;;;;;;6184988;23;20376;-92
2023/10/19 16:26:56;;;;;;;11.37;7.80;;;;;;;;;;6188250;23;20394;-93
2023/10/19 16:29:22;;;;;;;9.60;8.60;;;;;;;;;;6185043;23;20390;-93
2023/10/19 16:31:48;;;;;;;8.73;7.83;;;;;;;;;;6184773;23;20721;-92
2023/10/19 16:34:15;;;;;;;9.53;7.33;;;;;;;;;;6187488;23;20707;-92
2023/10/19 16:36:41;;;;;;;8.33;7.53;;;;;;;;;;6188174;23;20462;-93
2023/10/19 16:39:08;;;;;;;9.03;8.10;;;;;;;;;;6184661;23;20481;-93
2023/10/19 16:41:34;;;;;;;10.97;8.40;;;;;;;;;;6205052;23;20371;-93
2023/10/19 16:44:07;;;;;;;10.87;8.37;;;;;;;;;;6183997;23;20379;-92
2023/10/19 16:46:33;;;;;;;11.73;7.70;;;;;;;;;;6156792;23;20454;-91
2023/10/19 16:48:59;;;;;;;15.27;9.43;;;;;;;;;;6185126;23;20435;-92
2023/10/19 16:51:25;;;;;;;9.67;7.40;;;;;;;;;;6183824;23;20387;-92
2023/10/19 16:53:52;;;;;;;9.63;8.40;;;;;;;;;;6183643;23;20600;-91
2023/10/19 16:56:18;;;;;;;11.17;8.10;;;;;;;;;;6173356;23;20490;-92
2023/10/19 16:58:50;;;;;;;12.63;9.20;;;;;;;;;;6174090;23;20395;-92
2023/10/19 17:01:19;;;;;;;10.77;8.20;;;;;;;;;;6179290;23;20395;-93
2023/10/19 17:03:45;;;;;;;12.07;9.00;;;;;;;;;;6176543;23;20728;-92
2023/10/19 17:06:11;;;;;;;9.37;7.63;;;;;;;;;;6173470;23;20495;-94
2023/10/19 17:08:38;;;;;;;7.27;6.53;;;;;;;;;;6173861;23;20430;-92
2023/10/19 17:11:05;;;;;;;7.97;6.43;;;;;;;;;;6196960;23;20396;-94
2023/10/19 17:13:31;;;;;;;10.70;7.30;;;;;;;;;;6146875;23;20377;-95
2023/10/19 17:15:58;;;;;;;8.83;7.97;;;;;;;;;;6146259;23;20372;-94
2023/10/19 17:18:31;;;;;;;12.23;7.67;;;;;;;;;;6144860;23;20380;-93
2023/10/19 17:20:58;;;;;;;11.80;8.10;;;;;;;;;;6149334;23;20424;-94
2023/10/19 17:23:28;;;;;;;10.40;9.30;;;;;;;;;;6114299;23;20386;-93
2023/10/19 17:25:54;;;;;;;8.53;7.63;;;;;;;;;;6113230;23;20401;-92
2023/10/19 17:28:21;;;;;;;10.00;8.60;;;;;;;;;;6107836;23;20457;-92
2023/10/19 17:30:47;;;;;;;13.23;9.60;;;;;;;;;;6107712;23;20386;-95
2023/10/19 17:33:13;;;;;;;10.50;9.07;;;;;;;;;;6106884;23;20380;-92
2023/10/19 17:35:39;;;;;;;10.20;8.93;;;;;;;;;;6108365;23;20398;-92
2023/10/19 17:38:06;;;;;;;15.80;11.47;;;;;;;;;;6103295;23;20413;-93
2023/10/19 17:40:32;;;;;;;11.63;8.80;;;;;;;;;;6107526;23;20381;-93
2023/10/19 17:43:01;;;;;;;14.40;8.70;;;;;;;;;;6106440;23;20374;-94
2023/10/19 17:45:27;;;;;;;11.77;8.10;;;;;;;;;;6133080;23;20395;-92
2023/10/19 17:47:53;;;;;;;8.63;7.27;;;;;;;;;;6108780;23;20424;-93
2023/10/19 17:50:20;;;;;;;10.90;7.87;;;;;;;;;;6112332;23;20968;-94
2023/10/19 17:52:49;;;;;;;8.77;7.87;;;;;;;;;;6135928;23;20460;-94
2023/10/19 17:55:17;;;;;;;12.03;8.30;;;;;;;;;;6169922;23;20429;-94
2023/10/19 17:57:45;;;;;;;12.40;8.37;;;;;;;;;;6173114;23;20371;-94
2023/10/19 18:00:12;;;;;;;10.20;9.13;;;;;;;;;;6175532;23;20498;-93
2023/10/19 18:02:38;;;;;;;11.10;9.97;;;;;;;;;;6174853;23;20378;-92
2023/10/19 18:05:06;;;;;;;15.07;10.93;;;;;;;;;;6174229;23;20382;-93
2023/10/19 18:07:32;;;;;;;11.97;9.17;;;;;;;;;;6172071;23;20438;-93
2023/10/19 18:09:58;;;;;;;14.53;8.80;;;;;;;;;;6173306;23;20442;-91
2023/10/19 18:12:24;;;;;;;10.67;7.90;;;;;;;;;;6196382;23;20367;-92
2023/10/19 18:14:52;;;;;;;8.57;7.70;;;;;;;;;;6173554;23;20776;-93
2023/10/19 18:17:18;;;;;;;14.43;7.37;;;;;;;;;;6172748;23;20441;-92
2023/10/19 18:19:45;;;;;;;9.97;7.80;;;;;;;;;;6173799;23;20682;-91
2023/10/19 18:22:11;;;;;;;14.57;7.90;;;;;;;;;;6172561;23;20377;-93